createdAt,value
2022-11-15T00:01:18.124Z,98343.28
2022-11-15T00:03:50.481Z,98342.31
2022-11-15T00:06:22.367Z,98335.94
2022-11-15T00:08:49.334Z,98337.75
2022-11-15T00:11:16.347Z,98328.56
2022-11-15T00:13:40.810Z,98319.28
2022-11-15T00:16:07.028Z,98322.16
2022-11-15T00:18:39.868Z,98317.88
2022-11-15T00:21:14.511Z,98317.31
2022-11-15T00:23:43.049Z,98312.69
2022-11-15T00:26:11.114Z,98301.47
2022-11-15T00:28:35.701Z,98300.38
2022-11-15T00:31:09.028Z,98302.88
2022-11-15T00:33:35.990Z,98304.28
2022-11-15T00:36:05.635Z,98297.75
2022-11-15T00:38:34.878Z,98296.59
2022-11-15T00:40:59.059Z,98289.56
2022-11-15T00:43:27.135Z,98298.34
2022-11-15T00:45:51.627Z,98292.47
2022-11-15T00:48:16.182Z,98286.94
2022-11-15T00:52:07.807Z,98286.69
2022-11-15T00:54:33.112Z,98292.38
2022-11-15T00:56:58.231Z,98283.88
2022-11-15T00:59:22.898Z,98278.09
2022-11-15T01:01:49.832Z,98274.06
2022-11-15T01:04:14.079Z,98275.41
2022-11-15T01:06:38.744Z,98275.59
2022-11-15T01:09:14.702Z,98270.78
2022-11-15T01:11:39.328Z,98261.56
2022-11-15T01:14:04.738Z,98257.91
2022-11-15T01:16:29.305Z,98262.44
2022-11-15T01:19:00.523Z,98262.91
2022-11-15T01:21:32.522Z,98255.81
2022-11-15T01:24:09.997Z,98250.38
2022-11-15T01:26:44.364Z,98250.66
2022-11-15T01:29:09.043Z,98248.97
2022-11-15T01:31:35.230Z,98242.38
2022-11-15T01:34:02.520Z,98247.66
2022-11-15T01:36:26.968Z,98240.69
2022-11-15T01:38:51.354Z,98235.81
2022-11-15T01:41:26.369Z,98231.72
2022-11-15T01:43:58.215Z,98231.63
2022-11-15T01:46:34.923Z,98227.47
2022-11-15T01:49:06.418Z,98221.28
2022-11-15T01:51:37.684Z,98218.19
2022-11-15T01:54:14.668Z,98215.28
2022-11-15T01:56:50.050Z,98213.84
2022-11-15T01:59:19.606Z,98215.94
2022-11-15T02:01:46.181Z,98217.22
2022-11-15T02:04:19.731Z,98211.06
2022-11-15T02:06:53.692Z,98206.59
2022-11-15T02:09:22.917Z,98208.22
2022-11-15T02:11:52.085Z,98204.47
2022-11-15T02:14:26.347Z,98202.59
2022-11-15T02:17:06.151Z,98200.69
2022-11-15T02:20:19.984Z,98197.59
2022-11-15T02:23:18.172Z,98190.34
2022-11-15T02:25:58.581Z,98180.59
2022-11-15T02:28:55.872Z,98185.09
2022-11-15T02:31:38.367Z,98178.56
2022-11-15T02:34:21.597Z,98179.91
2022-11-15T02:36:58.237Z,98173.84
2022-11-15T02:39:37.243Z,98178.66
2022-11-15T02:42:31.755Z,98180.13
2022-11-15T02:45:12.867Z,98166.50
2022-11-15T02:47:48.280Z,98168.78
2022-11-15T02:50:23.396Z,98178.19
2022-11-15T02:52:51.767Z,98169.69
2022-11-15T02:55:35.513Z,98161.25
2022-11-15T02:58:32.287Z,98164.78
2022-11-15T03:01:17.774Z,98166.34
2022-11-15T03:04:07.772Z,98160.63
2022-11-15T03:06:47.052Z,98151.50
2022-11-15T03:09:27.702Z,98152.66
2022-11-15T03:12:05.075Z,98149.00
2022-11-15T03:14:39.039Z,98147.91
2022-11-15T03:17:19.631Z,98154.34
2022-11-15T03:20:08.080Z,98144.38
2022-11-15T03:22:40.491Z,98147.47
2022-11-15T03:25:12.811Z,98144.56
2022-11-15T03:27:53.039Z,98143.50
2022-11-15T03:30:36.125Z,98138.97
2022-11-15T03:33:07.942Z,98140.84
2022-11-15T03:35:44.553Z,98142.41
2022-11-15T03:38:23.617Z,98130.66
2022-11-15T03:41:02.474Z,98134.63
2022-11-15T03:43:40.178Z,98123.63
2022-11-15T03:46:11.883Z,98117.25
2022-11-15T03:48:46.868Z,98117.53
2022-11-15T03:51:20.209Z,98104.16
2022-11-15T03:53:46.225Z,98115.28
2022-11-15T03:56:11.292Z,98113.78
2022-11-15T03:58:38.359Z,98109.31
2022-11-15T04:01:03.846Z,98099.34
2022-11-15T04:03:28.313Z,98101.06
2022-11-15T04:05:53.677Z,98098.06
2022-11-15T04:08:30.615Z,98090.41
2022-11-15T04:10:56.236Z,98089.19
2022-11-15T04:13:20.560Z,98087.41
2022-11-15T04:15:45.897Z,98084.06
2022-11-15T04:18:13.118Z,98084.03
2022-11-15T04:20:50.662Z,98084.50
2022-11-15T04:23:31.842Z,98084.06
2022-11-15T04:26:03.260Z,98070.47
2022-11-15T04:28:28.362Z,98075.25
2022-11-15T04:30:53.108Z,98079.84
2022-11-15T04:33:18.546Z,98077.88
2022-11-15T04:35:43.792Z,98069.53
2022-11-15T04:38:08.993Z,98073.44
2022-11-15T04:40:33.638Z,98065.00
2022-11-15T04:43:04.831Z,98073.06
2022-11-15T04:45:30.422Z,98056.97
2022-11-15T04:47:56.178Z,98062.75
2022-11-15T04:50:21.450Z,98065.63
2022-11-15T04:52:53.529Z,98060.03
2022-11-15T04:55:18.138Z,98046.34
2022-11-15T04:57:43.084Z,98058.00
2022-11-15T05:00:14.975Z,98049.34
2022-11-15T05:02:51.687Z,98057.75
2022-11-15T05:05:16.842Z,98055.13
2022-11-15T05:07:41.271Z,98053.44
2022-11-15T05:10:05.469Z,98051.66
2022-11-15T05:12:38.397Z,98045.97
2022-11-15T05:15:07.758Z,98042.00
2022-11-15T05:17:34.705Z,98029.34
2022-11-15T05:20:00.167Z,98024.88
2022-11-15T05:22:26.339Z,98024.78
2022-11-15T05:24:50.695Z,98025.75
2022-11-15T05:27:16.020Z,98023.38
2022-11-15T05:29:40.238Z,98021.94
2022-11-15T05:32:04.747Z,98014.25
2022-11-15T05:34:32.875Z,98005.22
2022-11-15T05:36:57.951Z,98008.34
2022-11-15T05:39:22.324Z,97996.88
2022-11-15T05:41:54.679Z,98004.41
2022-11-15T05:44:27.467Z,98003.03
2022-11-15T05:46:57.174Z,98004.63
2022-11-15T05:49:31.723Z,98005.91
2022-11-15T05:52:00.759Z,98002.47
2022-11-15T05:54:29.375Z,98003.69
2022-11-15T05:56:54.354Z,98004.56
2022-11-15T05:59:22.107Z,98005.91
2022-11-15T06:01:46.368Z,98002.34
2022-11-15T06:04:11.002Z,97999.09
2022-11-15T06:06:36.462Z,98004.88
2022-11-15T06:09:03.382Z,98003.44
2022-11-15T06:11:27.427Z,98003.06
2022-11-15T06:13:52.975Z,97998.50
2022-11-15T06:16:17.481Z,98000.88
2022-11-15T06:18:42.968Z,97993.75
2022-11-15T06:21:09.218Z,97992.31
2022-11-15T06:23:37.633Z,98003.47
2022-11-15T06:26:06.988Z,98003.91
2022-11-15T06:28:33.123Z,98013.00
2022-11-15T06:30:57.462Z,98011.66
2022-11-15T06:33:21.808Z,98014.06
2022-11-15T06:35:47.019Z,98010.84
2022-11-15T06:38:15.925Z,98012.47
2022-11-15T06:40:42.691Z,98009.50
2022-11-15T06:43:11.162Z,98015.53
2022-11-15T06:45:36.341Z,98008.22
2022-11-15T06:48:01.026Z,98019.47
2022-11-15T06:50:26.024Z,98023.19
2022-11-15T06:52:50.539Z,98021.25
2022-11-15T06:55:14.987Z,98027.72
2022-11-15T06:57:40.926Z,98016.97
2022-11-15T07:00:10.495Z,98024.63
2022-11-15T07:02:35.300Z,98029.81
2022-11-15T07:05:00.398Z,98028.31
2022-11-15T07:07:24.634Z,98030.38
2022-11-15T07:09:49.058Z,98023.06
2022-11-15T07:12:13.972Z,98029.34
2022-11-15T07:14:38.364Z,98026.31
2022-11-15T07:17:08.424Z,98023.13
2022-11-15T07:19:33.446Z,98027.38
2022-11-15T07:21:57.587Z,98025.97
2022-11-15T07:24:21.704Z,98037.63
2022-11-15T07:26:46.946Z,98028.09
2022-11-15T07:29:11.151Z,98022.75
2022-11-15T07:31:35.572Z,98024.97
2022-11-15T07:34:03.699Z,98027.09
2022-11-15T07:36:28.892Z,98019.13
2022-11-15T07:38:53.191Z,98022.59
2022-11-15T07:41:20.886Z,98015.38
2022-11-15T07:43:45.034Z,98016.66
2022-11-15T07:46:11.870Z,98018.41
2022-11-15T07:48:45.596Z,98010.22
2022-11-15T07:51:17.010Z,98011.78
2022-11-15T07:53:46.489Z,98014.03
2022-11-15T07:56:12.651Z,98006.38
2022-11-15T07:58:37.050Z,98002.50
2022-11-15T08:01:02.395Z,98006.50
2022-11-15T08:03:26.800Z,98009.16
2022-11-15T08:05:55.684Z,98007.16
2022-11-15T08:08:23.710Z,97999.63
2022-11-15T08:10:48.165Z,97995.38
2022-11-15T08:13:15.561Z,97998.31
2022-11-15T08:15:41.911Z,97989.03
2022-11-15T08:18:10.383Z,97991.69
2022-11-15T08:20:35.864Z,97989.84
2022-11-15T08:23:02.358Z,97995.44
2022-11-15T08:25:31.046Z,97994.09
2022-11-15T08:27:57.032Z,97994.88
2022-11-15T08:30:22.268Z,97999.47
2022-11-15T08:32:46.956Z,97991.81
2022-11-15T08:35:12.257Z,97991.91
2022-11-15T08:37:37.319Z,97993.72
2022-11-15T08:40:01.954Z,97991.31
2022-11-15T08:42:29.010Z,97995.50
2022-11-15T08:44:55.733Z,97995.66
2022-11-15T08:47:20.011Z,97997.31
2022-11-15T08:49:44.110Z,97991.31
2022-11-15T08:52:09.785Z,98003.19
2022-11-15T08:54:33.958Z,97998.97
2022-11-15T08:56:58.374Z,97998.06
2022-11-15T08:59:27.238Z,97994.25
2022-11-15T09:01:51.649Z,97989.50
2022-11-15T09:04:16.033Z,97997.59
2022-11-15T09:06:43.299Z,97989.84
2022-11-15T09:09:07.955Z,97984.63
2022-11-15T09:11:32.270Z,97988.78
2022-11-15T09:14:00.236Z,97991.75
2022-11-15T09:16:27.497Z,97979.38
2022-11-15T09:18:52.153Z,97979.53
2022-11-15T09:21:17.999Z,97979.00
2022-11-15T09:23:42.540Z,97969.69
2022-11-15T09:26:09.602Z,97967.53
2022-11-15T09:28:39.363Z,97960.97
2022-11-15T09:31:06.965Z,97954.72
2022-11-15T09:33:35.816Z,97945.63
2022-11-15T09:36:07.842Z,97948.69
2022-11-15T09:38:32.988Z,97948.13
2022-11-15T09:41:37.868Z,97951.94
2022-11-15T09:44:36.829Z,97929.13
2022-11-15T09:47:33.224Z,97932.69
2022-11-15T09:50:21.577Z,97934.88
2022-11-15T09:52:28.312Z,97928.19
2022-11-15T09:54:52.840Z,97928.84
2022-11-15T09:57:16.259Z,97924.50
2022-11-15T09:59:51.385Z,97922.78
2022-11-15T10:02:16.865Z,97922.13
2022-11-15T10:04:24.900Z,97914.66
2022-11-15T10:06:40.085Z,97914.19
2022-11-15T10:09:05.054Z,97912.72
2022-11-15T10:13:51.441Z,97906.78
2022-11-15T10:16:08.423Z,97895.28
2022-11-15T10:18:38.589Z,97888.56
2022-11-15T10:20:53.251Z,97893.06
2022-11-15T10:23:10.701Z,97892.38
2022-11-15T10:25:24.335Z,97890.22
2022-11-15T10:27:30.074Z,97891.91
2022-11-15T10:29:35.753Z,97890.03
2022-11-15T10:31:45.475Z,97890.91
2022-11-15T10:33:51.327Z,97886.50
2022-11-15T10:36:27.714Z,97880.66
2022-11-15T10:38:36.995Z,97883.38
2022-11-15T10:40:46.125Z,97883.56
2022-11-15T10:43:07.576Z,97883.88
2022-11-15T10:45:34.510Z,97870.09
2022-11-15T10:47:40.186Z,97877.56
2022-11-15T10:50:03.685Z,97874.50
2022-11-15T10:52:25.184Z,97874.44
2022-11-15T10:54:45.000Z,97875.91
2022-11-15T10:56:55.100Z,97869.13
2022-11-15T10:59:14.745Z,97861.56
2022-11-15T11:01:34.222Z,97864.59
2022-11-15T11:03:45.582Z,97861.84
2022-11-15T11:05:52.302Z,97862.22
2022-11-15T11:08:04.138Z,97864.72
2022-11-15T11:12:52.721Z,97847.53
2022-11-15T11:14:58.558Z,97851.34
2022-11-15T11:17:17.672Z,97839.38
2022-11-15T11:20:05.845Z,97844.31
2022-11-15T11:22:29.434Z,97848.50
2022-11-15T11:24:45.112Z,97838.31
2022-11-15T11:27:16.619Z,97841.25
2022-11-15T11:29:42.699Z,97833.50
2022-11-15T11:32:08.202Z,97831.88
2022-11-15T11:34:34.738Z,97829.59
2022-11-15T11:36:57.603Z,97819.13
2022-11-15T11:39:39.233Z,97823.66
2022-11-15T11:42:06.178Z,97823.25
2022-11-15T11:44:34.674Z,97814.56
2022-11-15T11:46:58.004Z,97811.06
2022-11-15T11:49:15.659Z,97807.97
2022-11-15T11:51:31.599Z,97804.91
2022-11-15T11:53:50.519Z,97805.09
2022-11-15T11:56:04.970Z,97804.66
2022-11-15T11:58:23.742Z,97809.16
2022-11-15T12:00:34.684Z,97796.13
2022-11-15T12:02:48.952Z,97791.16
2022-11-15T12:05:07.436Z,97783.50
2022-11-15T12:07:24.524Z,97776.69
2022-11-15T12:09:40.821Z,97775.25
2022-11-15T12:12:02.325Z,97774.00
2022-11-15T12:14:36.229Z,97767.88
2022-11-15T12:16:55.747Z,97769.97
2022-11-15T12:19:08.092Z,97778.88
2022-11-15T12:21:31.373Z,97771.31
2022-11-15T12:23:49.665Z,97773.00
2022-11-15T12:26:05.986Z,97767.66
2022-11-15T12:28:25.212Z,97764.34
2022-11-15T12:30:53.216Z,97761.44
2022-11-15T12:33:04.096Z,97759.56
2022-11-15T12:35:30.628Z,97754.63
2022-11-15T12:37:56.400Z,97761.88
2022-11-15T12:40:33.002Z,97759.47
2022-11-15T12:42:47.107Z,97755.53
2022-11-15T12:45:03.186Z,97745.66
2022-11-15T12:47:30.145Z,97745.03
2022-11-15T12:49:51.459Z,97736.63
2022-11-15T12:52:14.730Z,97733.13
2022-11-15T12:54:55.064Z,97734.78
2022-11-15T12:57:32.857Z,97723.25
2022-11-15T12:59:56.349Z,97718.94
2022-11-15T13:02:04.605Z,97714.84
2022-11-15T13:04:27.971Z,97717.09
2022-11-15T13:06:50.884Z,97711.34
2022-11-15T13:08:57.253Z,97712.56
2022-11-15T13:11:38.109Z,97718.94
2022-11-15T13:13:49.447Z,97717.28
2022-11-15T13:16:04.879Z,97714.00
2022-11-15T13:18:35.035Z,97713.78
2022-11-15T13:20:49.705Z,97715.03
2022-11-15T13:23:03.334Z,97710.50
2022-11-15T13:25:25.272Z,97706.78
2022-11-15T13:27:33.278Z,97699.38
2022-11-15T13:29:39.005Z,97702.88
2022-11-15T13:31:51.513Z,97704.31
2022-11-15T13:34:22.922Z,97707.81
2022-11-15T13:36:38.185Z,97706.78
2022-11-15T13:38:45.892Z,97707.63
2022-11-15T13:40:52.470Z,97696.91
2022-11-15T13:42:58.855Z,97696.69
2022-11-15T13:45:21.140Z,97696.66
2022-11-15T13:47:32.838Z,97687.59
2022-11-15T13:49:39.685Z,97691.13
2022-11-15T13:51:58.527Z,97685.75
2022-11-15T13:54:24.533Z,97692.44
2022-11-15T13:56:35.277Z,97688.03
2022-11-15T13:58:43.223Z,97679.78
2022-11-15T14:00:51.501Z,97683.81
2022-11-15T14:03:00.932Z,97671.59
2022-11-15T14:05:25.102Z,97670.00
2022-11-15T14:07:43.271Z,97666.63
2022-11-15T14:09:52.597Z,97673.69
2022-11-15T14:12:00.957Z,97672.53
2022-11-15T14:14:18.707Z,97676.09
2022-11-15T14:16:37.366Z,97670.78
2022-11-15T14:18:55.096Z,97672.34
2022-11-15T14:21:10.920Z,97681.03
2022-11-15T14:23:31.448Z,97671.06
2022-11-15T14:25:39.387Z,97669.88
2022-11-15T14:27:48.633Z,97672.50
2022-11-15T14:29:54.922Z,97666.72
2022-11-15T14:32:20.318Z,97665.91
2022-11-15T14:34:26.851Z,97654.72
2022-11-15T14:36:32.563Z,97653.34
2022-11-15T14:38:40.987Z,97646.47
2022-11-15T14:40:49.767Z,97650.13
2022-11-15T14:42:55.495Z,97642.16
2022-11-15T14:45:09.268Z,97653.97
2022-11-15T14:47:19.301Z,97647.66
2022-11-15T14:49:24.952Z,97639.41
2022-11-15T14:51:30.610Z,97640.72
2022-11-15T14:53:37.098Z,97629.72
2022-11-15T14:55:53.053Z,97632.81
2022-11-15T14:57:59.515Z,97625.63
2022-11-15T15:00:21.114Z,97624.69
2022-11-15T15:02:30.904Z,97619.44
2022-11-15T15:04:36.646Z,97619.44
2022-11-15T15:06:46.225Z,97617.16
2022-11-15T15:08:52.242Z,97613.16
2022-11-15T15:11:00.789Z,97614.28
2022-11-15T15:13:08.037Z,97607.38
2022-11-15T15:15:27.576Z,97604.53
2022-11-15T15:17:33.291Z,97611.25
2022-11-15T15:19:39.807Z,97611.56
2022-11-15T15:21:45.518Z,97605.59
2022-11-15T15:23:51.620Z,97610.25
2022-11-15T15:26:04.964Z,97607.44
2022-11-15T15:28:10.678Z,97599.59
2022-11-15T15:30:17.505Z,97600.84
2022-11-15T15:32:24.142Z,97597.28
2022-11-15T15:34:29.928Z,97603.38
2022-11-15T15:36:35.761Z,97594.78
2022-11-15T15:38:42.882Z,97609.06
2022-11-15T15:40:51.357Z,97605.59
2022-11-15T15:43:01.628Z,97601.94
2022-11-15T15:45:10.028Z,97600.00
2022-11-15T15:47:19.911Z,97602.28
2022-11-15T15:49:25.749Z,97604.13
2022-11-15T15:51:32.305Z,97599.38
2022-11-15T15:53:38.961Z,97599.19
2022-11-15T15:55:47.800Z,97597.47
2022-11-15T15:57:54.954Z,97600.94
2022-11-15T16:00:03.303Z,97592.78
2022-11-15T16:02:18.641Z,97600.44
2022-11-15T16:04:25.711Z,97603.84
2022-11-15T16:06:45.348Z,97603.09
2022-11-15T16:09:13.462Z,97593.69
2022-11-15T16:11:17.957Z,97593.56
2022-11-15T16:13:24.392Z,97597.44
2022-11-15T16:15:35.991Z,97580.94
2022-11-15T16:17:49.449Z,97590.53
2022-11-15T16:19:55.218Z,97589.25
2022-11-15T16:22:00.918Z,97595.19
2022-11-15T16:24:08.953Z,97603.78
2022-11-15T16:26:25.905Z,97605.69
2022-11-15T16:28:36.940Z,97600.97
2022-11-15T16:30:55.390Z,97602.44
2022-11-15T16:33:02.515Z,97591.75
2022-11-15T16:35:09.380Z,97598.81
2022-11-15T16:37:27.024Z,97588.53
2022-11-15T16:39:39.321Z,97594.56
2022-11-15T16:41:56.526Z,97592.31
2022-11-15T16:44:03.100Z,97592.31
2022-11-15T16:46:20.520Z,97584.91
2022-11-15T16:48:29.672Z,97585.75
2022-11-15T16:50:43.233Z,97581.22
2022-11-15T16:52:49.001Z,97579.50
2022-11-15T16:54:54.722Z,97582.28
2022-11-15T16:57:01.282Z,97582.34
2022-11-15T16:59:07.094Z,97579.69
2022-11-15T17:01:25.120Z,97581.75
2022-11-15T17:03:32.235Z,97580.13
2022-11-15T17:05:37.972Z,97575.22
2022-11-15T17:07:49.144Z,97583.66
2022-11-15T17:09:55.695Z,97573.47
2022-11-15T17:12:08.303Z,97571.66
2022-11-15T17:14:16.532Z,97571.88
2022-11-15T17:16:25.853Z,97563.22
2022-11-15T17:18:31.744Z,97567.75
2022-11-15T17:20:37.721Z,97563.84
2022-11-15T17:22:44.494Z,97563.16
2022-11-15T17:24:50.716Z,97552.69
2022-11-15T17:26:56.468Z,97554.19
2022-11-15T17:29:06.312Z,97543.13
2022-11-15T17:31:14.782Z,97547.13
2022-11-15T17:33:23.078Z,97553.16
2022-11-15T17:35:31.596Z,97544.16
2022-11-15T17:37:37.847Z,97542.53
2022-11-15T17:39:45.970Z,97536.13
2022-11-15T17:41:52.922Z,97525.16
2022-11-15T17:44:05.799Z,97528.69
2022-11-15T17:46:17.704Z,97530.16
2022-11-15T17:48:26.932Z,97524.63
2022-11-15T17:50:34.134Z,97520.34
2022-11-15T17:52:39.852Z,97514.69
2022-11-15T17:54:48.570Z,97512.41
2022-11-15T17:56:54.232Z,97519.34
2022-11-15T17:59:03.173Z,97514.16
2022-11-15T18:01:12.710Z,97507.81
2022-11-15T18:03:18.762Z,97504.72
2022-11-15T18:05:27.105Z,97509.31
2022-11-15T18:07:33.975Z,97510.72
2022-11-15T18:09:42.503Z,97503.97
2022-11-15T18:11:53.783Z,97495.34
2022-11-15T18:14:03.887Z,97489.03
2022-11-15T18:16:14.556Z,97488.09
2022-11-15T18:18:20.345Z,97484.78
2022-11-15T18:20:29.594Z,97473.94
2022-11-15T18:22:35.317Z,97473.94
2022-11-15T18:24:43.092Z,97473.28
2022-11-15T18:26:49.669Z,97466.88
2022-11-15T18:28:57.550Z,97470.50
2022-11-15T18:31:06.269Z,97480.47
2022-11-15T18:33:12.807Z,97477.00
2022-11-15T18:35:18.695Z,97480.31
2022-11-15T18:37:34.823Z,97473.22
2022-11-15T18:39:41.399Z,97476.50
2022-11-15T18:41:49.493Z,97476.94
2022-11-15T19:11:59.069Z,97483.38
2022-11-15T19:14:09.902Z,97482.03
2022-11-15T19:16:19.161Z,97480.84
2022-11-15T19:18:24.916Z,97480.94
2022-11-15T19:20:31.439Z,97486.44
2022-11-15T19:22:37.261Z,97486.81
2022-11-15T19:24:43.008Z,97486.78
2022-11-15T19:26:49.746Z,97478.34
2022-11-15T19:29:00.645Z,97478.38
2022-11-15T19:31:10.444Z,97468.69
2022-11-15T19:33:17.278Z,97471.97
2022-11-15T19:35:32.675Z,97470.13
2022-11-15T19:37:40.608Z,97477.38
2022-11-15T19:39:47.201Z,97476.25
2022-11-15T19:41:53.773Z,97472.41
2022-11-15T19:44:09.084Z,97461.69
2022-11-15T19:46:18.718Z,97462.56
2022-11-15T19:48:25.063Z,97461.19
2022-11-15T19:50:30.846Z,97454.66
2022-11-15T19:52:37.499Z,97458.28
2022-11-15T19:54:47.452Z,97447.97
2022-11-15T19:56:56.462Z,97453.03
2022-11-15T19:59:06.835Z,97443.50
2022-11-15T20:01:21.066Z,97444.69
2022-11-15T20:03:28.396Z,97447.75
2022-11-15T20:05:34.892Z,97448.53
2022-11-15T20:07:40.877Z,97441.59
2022-11-15T20:09:54.548Z,97440.19
2022-11-15T20:12:01.201Z,97435.03
2022-11-15T20:14:11.876Z,97435.94
2022-11-15T20:16:21.971Z,97433.53
2022-11-15T20:18:33.581Z,97435.09
2022-11-15T20:20:39.619Z,97433.75
2022-11-15T20:22:45.689Z,97427.47
2022-11-15T20:24:52.211Z,97429.63
2022-11-15T20:26:57.928Z,97436.47
2022-11-15T20:29:13.813Z,97431.59
2022-11-15T20:31:22.027Z,97427.06
2022-11-15T20:33:29.691Z,97427.03
2022-11-15T20:35:35.452Z,97420.94
2022-11-15T20:37:42.866Z,97426.13
2022-11-15T20:39:48.789Z,97419.38
2022-11-15T20:41:54.467Z,97423.00
2022-11-15T20:45:49.326Z,97414.53
2022-11-15T20:48:19.005Z,97419.66
2022-11-15T20:50:41.584Z,97414.16
2022-11-15T20:52:48.805Z,97406.00
2022-11-15T20:54:55.658Z,97414.41
2022-11-15T20:57:01.506Z,97409.38
2022-11-15T20:59:07.338Z,97412.50
2022-11-15T21:01:23.917Z,97414.53
2022-11-15T21:05:33.386Z,97407.91
2022-11-15T21:07:45.023Z,97405.19
2022-11-15T21:10:03.186Z,97409.47
2022-11-15T21:12:12.805Z,97403.59
2022-11-15T21:14:19.507Z,97403.03
2022-11-15T21:16:25.289Z,97403.69
2022-11-15T21:18:31.201Z,97398.16
2022-11-15T21:20:42.985Z,97395.31
2022-11-15T21:22:49.672Z,97398.66
2022-11-15T21:24:59.083Z,97392.72
2022-11-15T21:27:05.767Z,97387.91
2022-11-15T21:29:17.462Z,97389.41
2022-11-15T21:31:23.341Z,97381.44
2022-11-15T21:33:34.465Z,97377.06
2022-11-15T21:35:46.478Z,97379.00
2022-11-15T21:37:57.064Z,97380.72
2022-11-15T21:40:03.917Z,97377.22
2022-11-15T21:42:09.752Z,97370.47
2022-11-15T21:44:15.483Z,97368.56
2022-11-15T21:46:23.130Z,97368.91
2022-11-15T21:48:33.395Z,97369.41
2022-11-15T21:50:39.317Z,97366.88
2022-11-15T21:52:54.636Z,97367.59
2022-11-15T21:55:00.380Z,97357.13
2022-11-15T21:57:20.592Z,97356.13
2022-11-15T21:59:27.292Z,97366.28
2022-11-15T22:01:45.543Z,97362.72
2022-11-15T22:03:55.213Z,97360.03
2022-11-15T22:06:02.069Z,97354.03
2022-11-15T22:08:10.456Z,97350.66
2022-11-15T22:10:17.031Z,97355.91
2022-11-15T22:12:27.084Z,97344.81
2022-11-15T22:14:35.368Z,97347.03
2022-11-15T22:16:41.575Z,97349.69
2022-11-15T22:18:48.238Z,97340.63
2022-11-15T22:20:58.621Z,97336.31
2022-11-15T22:23:04.571Z,97333.03
2022-11-15T22:25:14.109Z,97329.44
2022-11-15T22:27:19.868Z,97335.97
2022-11-15T22:29:25.783Z,97337.78
2022-11-15T22:31:32.403Z,97331.13
2022-11-15T22:33:43.142Z,97327.66
2022-11-15T22:35:51.771Z,97317.59
2022-11-15T22:38:01.725Z,97321.69
2022-11-15T22:40:09.984Z,97315.88
2022-11-15T22:42:23.382Z,97315.22
2022-11-15T22:44:40.589Z,97310.75
2022-11-15T22:46:46.362Z,97310.03
2022-11-15T22:48:52.125Z,97309.84
2022-11-15T22:51:01.589Z,97300.31
2022-11-15T22:53:10.904Z,97298.28
2022-11-15T22:55:18.048Z,97293.03
2022-11-15T22:57:27.285Z,97293.38
2022-11-15T22:59:36.537Z,97294.28
2022-11-15T23:01:45.397Z,97290.47
2022-11-15T23:03:57.363Z,97291.34
2022-11-15T23:06:10.378Z,97301.66
2022-11-15T23:08:17.159Z,97292.16
2022-11-15T23:10:36.140Z,97294.13
2022-11-15T23:12:56.961Z,97295.03
2022-11-15T23:15:02.735Z,97289.34
2022-11-15T23:17:09.541Z,97270.88
2022-11-15T23:19:16.182Z,97274.63
2022-11-15T23:21:38.216Z,97273.53
2022-11-15T23:23:45.186Z,97269.69
2022-11-15T23:25:51.081Z,97261.59
2022-11-15T23:27:59.566Z,97260.19
2022-11-15T23:30:19.147Z,97255.91
2022-11-15T23:32:38.082Z,97255.47
2022-11-15T23:34:47.434Z,97256.00
2022-11-15T23:36:54.354Z,97249.69
2022-11-15T23:39:00.192Z,97244.28
2022-11-15T23:41:07.609Z,97242.94
2022-11-15T23:43:16.881Z,97245.41
2022-11-15T23:45:22.659Z,97239.09
2022-11-15T23:47:59.954Z,97244.69
2022-11-15T23:50:08.982Z,97234.25
2022-11-15T23:52:15.670Z,97234.25
2022-11-15T23:54:21.477Z,97239.09
2022-11-15T23:56:28.525Z,97235.34
2022-11-15T23:58:35.199Z,97239.38
